Time;durP1;ratioP1;P1;durP2;ratioP2;P2;SDS_P1;SDS_P2;PMS_P1;PMS_P2;Temp;Humidity;BMP_temperature;BMP_pressure;BME280_temperature;BME280_humidity;BME280_pressure;Samples;Min_cycle;Max_cycle;Signal;HPM_P1;HPM_P2
2022/04/16 00:01:37;;;;;;;37.40;31.95;;;;;;;4.22;100.00;161670.34;5030005;28;20049;-59
2022/04/16 00:04:02;;;;;;;37.45;31.58;;;;;;;4.16;100.00;161654.22;5031307;28;20059;-57
2022/04/16 00:06:28;;;;;;;42.80;32.65;;;;;;;4.20;100.00;161665.00;5029603;28;20068;-59
2022/04/16 00:08:53;;;;;;;44.15;30.92;;;;;;;4.18;100.00;161660.94;5031528;28;20025;-59
2022/04/16 00:11:19;;;;;;;49.03;31.30;;;;;;;4.16;100.00;161654.22;5029492;28;20045;-60
2022/04/16 00:13:46;;;;;;;46.22;30.52;;;;;;;4.15;100.00;161651.50;5031448;28;20028;-59
2022/04/16 00:16:11;;;;;;;41.17;31.65;;;;;;;4.12;100.00;161646.19;5030149;28;20088;-59
2022/04/16 00:18:37;;;;;;;42.17;31.95;;;;;;;4.09;100.00;161638.09;5031167;28;20034;-59
2022/04/16 00:21:04;;;;;;;41.00;29.92;;;;;;;4.07;100.00;161632.69;5029794;28;20408;-59
2022/04/16 00:23:30;;;;;;;43.05;30.92;;;;;;;4.01;100.00;161616.59;5031265;28;20387;-58
2022/04/16 00:25:56;;;;;;;40.53;28.83;;;;;;;3.95;100.00;161600.47;5029883;28;20033;-59
2022/04/16 00:28:22;;;;;;;43.90;32.65;;;;;;;3.90;100.00;161587.03;5030863;28;20032;-59
2022/04/16 00:30:47;;;;;;;33.47;29.08;;;;;;;3.85;100.00;161573.56;5029854;28;20021;-58
2022/04/16 00:33:13;;;;;;;42.72;33.88;;;;;;;3.86;100.00;161576.25;5030129;28;20029;-59
2022/04/16 00:35:42;;;;;;;41.60;33.10;;;;;;;3.80;100.00;161561.47;5030279;28;20033;-58
2022/04/16 00:38:07;;;;;;;39.55;29.88;;;;;;;3.73;100.00;161544.03;5010159;28;20049;-59
2022/04/16 00:40:33;;;;;;;39.30;28.63;;;;;;;3.68;100.00;161530.59;5010669;28;20040;-58
2022/04/16 00:42:58;;;;;;;42.95;31.13;;;;;;;3.59;100.00;161506.41;5009372;28;20041;-59
2022/04/16 00:45:25;;;;;;;37.90;30.10;;;;;;;3.54;100.00;161493.00;5011288;28;20402;-58
2022/04/16 00:47:50;;;;;;;42.60;32.03;;;;;;;3.43;100.00;161466.09;5010158;28;20042;-59
2022/04/16 00:50:15;;;;;;;38.55;29.52;;;;;;;3.45;100.00;161470.13;5011254;28;20034;-59
2022/04/16 00:52:41;;;;;;;40.53;32.60;;;;;;;3.44;100.00;161468.81;5009745;28;20092;-59
2022/04/16 00:55:08;;;;;;;47.92;34.13;;;;;;;3.42;100.00;161463.41;5010747;28;20080;-58
2022/04/16 00:57:34;;;;;;;42.28;32.30;;;;;;;3.43;100.00;161466.09;5009270;28;20052;-58
2022/04/16 01:00:00;;;;;;;46.30;32.90;;;;;;;3.43;100.00;161466.09;5010762;28;20089;-57
2022/04/16 01:02:26;;;;;;;43.42;32.47;;;;;;;3.42;100.00;161463.41;5009589;28;20058;-58
2022/04/16 01:04:52;;;;;;;50.60;37.30;;;;;;;3.44;100.00;161468.81;5010646;28;20048;-58
2022/04/16 01:07:25;;;;;;;45.08;36.17;;;;;;;3.46;100.00;161474.13;5009762;28;20050;-57
2022/04/16 01:09:51;;;;;;;41.63;32.92;;;;;;;3.44;100.00;161468.81;5010837;28;20072;-57
2022/04/16 01:12:17;;;;;;;50.05;36.00;;;;;;;3.38;100.00;161452.69;5009081;28;20042;-57
2022/04/16 01:14:43;;;;;;;44.13;35.38;;;;;;;3.32;100.00;161436.53;5011307;28;20141;-58
2022/04/16 01:17:09;;;;;;;37.05;28.65;;;;;;;3.24;100.00;161416.41;5009637;28;20734;-57
2022/04/16 01:19:37;;;;;;;36.55;27.95;;;;;;;3.16;100.00;161396.22;5010365;28;20117;-57
2022/04/16 01:22:05;;;;;;;36.33;28.23;;;;;;;3.07;100.00;161370.72;5009815;28;20038;-58
2022/04/16 01:24:30;;;;;;;40.13;28.23;;;;;;;2.99;100.00;161350.59;5010517;28;20037;-57
2022/04/16 01:26:58;;;;;;;37.40;29.23;;;;;;;2.93;100.00;161335.81;5009495;28;20045;-57
2022/04/16 01:29:23;;;;;;;33.60;25.92;;;;;;;2.88;100.00;161321.03;5011076;28;20044;-57
2022/04/16 01:31:49;;;;;;;38.17;30.40;;;;;;;2.80;100.00;161302.22;5009490;28;20526;-57
2022/04/16 01:34:17;;;;;;;40.50;30.50;;;;;;;2.72;100.00;161280.75;5010695;28;20030;-58
2022/04/16 01:36:42;;;;;;;41.55;31.30;;;;;;;2.66;100.00;161264.63;5009317;28;20576;-58
2022/04/16 01:39:08;;;;;;;38.97;29.20;;;;;;;2.66;100.00;161264.63;4991510;28;20034;-57
2022/04/16 01:41:34;;;;;;;45.40;33.80;;;;;;;2.64;100.00;161259.31;5002282;28;20540;-58
2022/04/16 01:43:59;;;;;;;38.22;30.83;;;;;;;2.58;100.00;161243.16;5011177;28;20021;-58
2022/04/16 01:46:25;;;;;;;50.20;34.53;;;;;;;2.50;100.00;161224.34;5009044;28;20042;-58
2022/04/16 01:48:53;;;;;;;39.13;30.05;;;;;;;2.48;100.00;161219.03;5010758;28;20501;-58
2022/04/16 01:51:19;;;;;;;;;;;;;;;2.44;100.00;161208.25;5009711;28;20096;-58
2022/04/16 01:53:44;;;;;;;40.75;29.77;;;;;;;2.43;100.00;161205.56;5012109;28;20284;-58
2022/04/16 01:56:10;;;;;;;45.80;34.70;;;;;;;2.42;100.00;161202.88;5012985;28;20445;-58
2022/04/16 01:58:38;;;;;;;43.10;29.02;;;;;;;2.39;100.00;161194.84;5014123;28;20069;-58
2022/04/16 02:01:04;;;;;;;42.75;28.83;;;;;;;2.29;100.00;161167.97;5012264;28;20414;-58
2022/04/16 02:03:30;;;;;;;40.20;31.10;;;;;;;2.36;100.00;161186.75;5014278;28;20033;-58
2022/04/16 02:05:55;;;;;;;39.20;29.70;;;;;;;2.35;100.00;161184.06;5012081;28;20629;-58
2022/04/16 02:08:21;;;;;;;42.67;33.47;;;;;;;2.36;100.00;161186.75;5014232;28;20362;-58
2022/04/16 02:10:46;;;;;;;44.38;31.38;;;;;;;2.35;100.00;161184.06;5012778;28;20088;-58
2022/04/16 02:13:11;;;;;;;45.65;33.63;;;;;;;2.37;100.00;161190.84;5013917;28;20026;-58
2022/04/16 02:15:37;;;;;;;57.28;37.42;;;;;;;2.41;100.00;161200.22;5013096;28;20018;-58
2022/04/16 02:18:02;;;;;;;55.75;36.80;;;;;;;2.44;100.00;161206.94;5012732;28;20049;-58
2022/04/16 02:20:28;;;;;;;56.90;44.05;;;;;;;2.45;100.00;161210.94;5013417;28;20034;-58
2022/04/16 02:22:53;;;;;;;45.53;34.95;;;;;;;2.44;100.00;161208.25;5012092;28;20042;-58
2022/04/16 02:25:20;;;;;;;49.47;36.20;;;;;;;2.35;100.00;161184.06;5013716;28;20033;-58
2022/04/16 02:27:46;;;;;;;45.78;32.65;;;;;;;2.34;100.00;161181.44;5012174;28;20044;-58
2022/04/16 02:30:14;;;;;;;58.08;40.17;;;;;;;2.36;100.00;161186.75;5013849;28;20030;-58
2022/04/16 02:32:42;;;;;;;48.45;33.90;;;;;;;2.37;100.00;161189.47;5011992;28;20046;-58
2022/04/16 02:35:08;;;;;;;49.33;38.63;;;;;;;2.33;100.00;161180.06;5013250;28;20049;-59
2022/04/16 02:37:34;;;;;;;49.83;33.58;;;;;;;2.19;100.00;161143.84;5011725;28;20045;-58
2022/04/16 02:40:00;;;;;;;28.63;22.88;;;;;;;2.03;100.00;161102.22;5013648;28;20037;-58
2022/04/16 02:42:25;;;;;;;26.73;23.27;;;;;;;1.89;100.00;161066.00;5011542;28;20081;-59
2022/04/16 02:47:35;;;;;;;35.30;28.40;;;;;;;1.70;100.00;161015.00;5008778;28;20044;-59
2022/04/16 02:50:00;;;;;;;36.30;29.85;;;;;;;1.65;100.00;161001.59;5012353;28;20034;-59
2022/04/16 02:52:25;;;;;;;37.47;29.58;;;;;;;1.59;100.00;160986.81;5008547;28;20041;-59
2022/04/16 02:54:54;;;;;;;50.38;34.45;;;;;;;1.58;100.00;160984.13;5012832;28;20029;-59
2022/04/16 02:57:20;;;;;;;46.88;35.55;;;;;;;1.61;100.00;160990.81;5007795;28;20493;-59
2022/04/16 02:59:46;;;;;;;36.63;28.08;;;;;;;1.62;100.00;160993.53;5011470;28;20048;-59
2022/04/16 03:02:12;;;;;;;52.95;21.08;;;;;;;1.57;100.00;160982.81;5010778;28;20092;-59
2022/04/16 03:04:38;;;;;;;40.05;30.48;;;;;;;1.51;100.00;160966.72;5009641;28;20073;-59
2022/04/16 03:07:04;;;;;;;32.15;27.73;;;;;;;1.49;100.00;160961.34;5011068;28;20034;-59
2022/04/16 03:09:29;;;;;;;34.38;26.60;;;;;;;1.45;100.00;160950.63;5012247;28;20029;-59
2022/04/16 03:11:54;;;;;;;45.97;32.75;;;;;;;1.48;100.00;160957.31;5005318;28;20042;-59
2022/04/16 03:19:48;;;;;;;45.67;33.72;;;;;;;1.62;100.00;160993.53;5023900;28;20079;-59
2022/04/16 03:22:13;;;;;;;42.65;31.73;;;;;;;1.61;100.00;160992.19;5023109;28;20037;-59
2022/04/16 03:24:39;;;;;;;50.38;36.55;;;;;;;1.63;100.00;160996.22;5021350;28;20022;-59
2022/04/16 03:27:05;;;;;;;53.97;36.70;;;;;;;1.65;100.00;161001.59;5021648;28;20045;-59
2022/04/16 03:29:31;;;;;;;44.55;34.22;;;;;;;1.60;100.00;160989.50;5027475;28;20045;-59
2022/04/16 03:31:57;;;;;;;49.83;35.70;;;;;;;1.55;100.00;160976.09;5022998;28;20041;-59
2022/04/16 03:34:22;;;;;;;75.68;28.30;;;;;;;1.50;100.00;160964.03;5020287;28;20080;-59
2022/04/16 03:36:47;;;;;;;254.18;21.90;;;;;;;1.43;100.00;160945.25;5021830;28;20038;-59
2022/04/16 03:39:13;;;;;;;307.80;24.00;;;;;;;1.34;100.00;160922.41;5024948;28;20469;-59
2022/04/16 03:41:38;;;;;;;182.55;25.20;;;;;;;1.24;100.00;160896.94;5023890;28;20065;-59
2022/04/16 03:44:04;;;;;;;152.07;22.65;;;;;;;1.12;100.00;160864.75;5023298;28;20021;-59
2022/04/16 03:46:30;;;;;;;178.90;20.33;;;;;;;1.00;100.00;160832.59;5021757;28;20034;-59
2022/04/16 03:48:56;;;;;;;93.35;17.42;;;;;;;0.98;100.00;160828.53;5023809;28;20397;-59
2022/04/16 03:51:21;;;;;;;22.63;18.40;;;;;;;0.92;100.00;160812.44;5021061;28;20049;-59
2022/04/16 03:53:46;;;;;;;25.48;20.42;;;;;;;0.97;100.00;160824.53;5020583;28;20022;-59
2022/04/16 04:01:39;;;;;;;25.70;21.50;;;;;;;0.98;100.00;160827.22;5020257;28;20096;-60
2022/04/16 04:04:05;;;;;;;28.50;20.45;;;;;;;0.95;100.00;160821.84;5022509;28;20026;-60
2022/04/16 04:06:31;;;;;;;21.42;18.15;;;;;;;0.92;100.00;160813.81;5022890;28;20037;-60
2022/04/16 04:08:57;;;;;;;25.38;20.85;;;;;;;0.85;100.00;160795.03;5021218;28;20041;-59
2022/04/16 04:11:22;;;;;;;22.88;20.30;;;;;;;0.81;100.00;160784.28;5020560;28;20071;-59
2022/04/16 04:13:47;;;;;;;29.80;23.15;;;;;;;0.83;100.00;160788.28;5027155;28;20021;-58
2022/04/16 04:16:13;;;;;;;41.05;27.40;;;;;;;0.86;100.00;160797.69;5021758;28;20424;-58
2022/04/16 04:18:38;;;;;;;29.02;22.50;;;;;;;0.87;100.00;160800.38;5023872;28;20041;-58
2022/04/16 04:21:03;;;;;;;35.10;25.73;;;;;;;0.86;100.00;160797.69;5018442;28;20041;-57
2022/04/16 04:23:29;;;;;;;29.92;25.35;;;;;;;0.88;100.00;160803.06;5022361;28;20052;-58
2022/04/16 04:25:54;;;;;;;36.95;28.35;;;;;;;0.89;100.00;160805.75;5022550;28;20389;-58
2022/04/16 04:28:19;;;;;;;46.85;32.50;;;;;;;0.92;100.00;160813.81;5026606;28;20022;-58
2022/04/16 04:30:45;;;;;;;36.58;29.55;;;;;;;0.94;100.00;160819.16;5018188;28;20051;-58
2022/04/16 04:33:10;;;;;;;45.00;31.75;;;;;;;0.94;100.00;160819.16;5025216;28;20014;-58
2022/04/16 04:35:35;;;;;;;53.03;37.50;;;;;;;0.97;100.00;160824.53;5031203;28;20037;-58
2022/04/16 04:38:01;;;;;;;40.67;32.28;;;;;;;1.03;100.00;160840.59;5021467;28;20432;-58
2022/04/16 04:40:26;;;;;;;31.33;24.65;;;;;;;1.03;100.00;160840.59;5021584;28;20030;-58
2022/04/16 04:42:51;;;;;;;33.58;24.67;;;;;;;0.95;100.00;160821.84;5023602;28;20049;-58
2022/04/16 04:45:17;;;;;;;22.83;19.15;;;;;;;0.80;100.00;160781.59;5019174;28;20018;-58
2022/04/16 04:47:42;;;;;;;28.95;19.58;;;;;;;0.78;100.00;160776.28;5029040;28;20049;-58
2022/04/16 04:50:09;;;;;;;20.17;17.20;;;;;;;0.68;100.00;160749.44;5030778;28;20034;-58
2022/04/16 04:52:39;;;;;;;27.02;22.73;;;;;;;0.57;100.00;160722.59;5028696;28;20191;-58
2022/04/16 04:55:09;;;;;;;28.45;19.38;;;;;;;0.50;100.00;160703.84;5028197;28;20109;-58
2022/04/16 04:57:34;;;;;;;22.38;19.98;;;;;;;0.49;100.00;160701.16;5026579;28;20103;-58
2022/04/16 05:00:00;;;;;;;21.90;19.40;;;;;;;0.46;100.00;160693.13;5030321;28;20068;-57
2022/04/16 05:02:25;;;;;;;19.88;17.33;;;;;;;0.44;100.00;160687.75;5027943;28;20037;-58
2022/04/16 05:04:50;;;;;;;24.60;19.63;;;;;;;0.41;100.00;160679.75;5029345;28;20029;-58
2022/04/16 05:07:16;;;;;;;20.95;18.63;;;;;;;0.37;100.00;160669.00;5028109;28;20117;-58
2022/04/16 05:09:41;;;;;;;31.30;20.80;;;;;;;0.46;100.00;160693.13;5030236;28;20032;-58
2022/04/16 05:12:07;;;;;;;33.13;26.50;;;;;;;0.56;100.00;160719.91;5027101;28;20405;-58
2022/04/16 05:14:32;;;;;;;27.50;24.45;;;;;;;0.63;100.00;160737.38;5030009;28;20480;-58
2022/04/16 05:16:58;;;;;;;31.75;22.90;;;;;;;0.71;100.00;160757.50;5028390;28;20534;-58
2022/04/16 05:19:23;;;;;;;30.25;25.95;;;;;;;0.76;100.00;160772.22;5028262;28;20080;-58
2022/04/16 05:21:48;;;;;;;25.17;22.42;;;;;;;0.83;100.00;160789.66;5028817;28;20033;-59
2022/04/16 05:24:14;;;;;;;29.90;24.02;;;;;;;0.93;100.00;160815.13;5029667;28;20037;-58
2022/04/16 05:26:39;;;;;;;33.15;27.15;;;;;;;1.02;100.00;160837.91;5021339;28;20041;-58
2022/04/16 05:29:06;;;;;;;33.58;25.40;;;;;;;1.10;100.00;160859.38;5028192;28;20517;-58
2022/04/16 05:31:31;;;;;;;36.33;26.73;;;;;;;1.12;100.00;160864.75;5022268;28;20060;-58
2022/04/16 05:36:42;;;;;;;24.80;22.15;;;;;;;1.34;100.00;160921.09;5023685;28;20460;-58
2022/04/16 05:39:08;;;;;;;28.77;23.65;;;;;;;1.38;100.00;160931.78;5024139;28;20104;-58
2022/04/16 05:41:33;;;;;;;27.13;24.05;;;;;;;1.44;100.00;160947.94;5024357;28;20048;-58
2022/04/16 05:43:59;;;;;;;28.98;23.95;;;;;;;1.50;100.00;160964.03;5027362;28;20112;-58
2022/04/16 05:46:25;;;;;;;28.58;25.17;;;;;;;1.57;100.00;160982.81;5023102;28;20046;-58
2022/04/16 05:48:50;;;;;;;29.45;24.63;;;;;;;1.65;100.00;161001.59;5025700;28;20039;-58
2022/04/16 05:51:16;;;;;;;28.42;24.50;;;;;;;1.75;100.00;161028.38;5028614;28;20091;-58
2022/04/16 05:53:41;;;;;;;28.10;24.88;;;;;;;1.85;100.00;161053.94;5032672;28;20040;-58
2022/04/16 05:56:09;;;;;;;28.42;23.00;;;;;;;1.96;100.00;161082.09;5028911;28;20040;-58
2022/04/16 05:58:34;;;;;;;26.40;23.60;;;;;;;2.10;100.00;161119.69;5032124;28;20116;-58
2022/04/16 06:01:00;;;;;;;30.35;25.05;;;;;;;2.22;100.00;161151.88;5029973;28;20064;-58
2022/04/16 06:03:25;;;;;;;30.73;24.80;;;;;;;2.35;100.00;161184.06;5032233;28;20037;-58
2022/04/16 06:05:52;;;;;;;30.63;26.02;;;;;;;2.53;100.00;161232.44;5031619;28;20036;-57
2022/04/16 06:08:18;;;;;;;36.03;30.38;;;;;;;2.68;100.00;161271.34;5032583;28;20496;-57
2022/04/16 06:10:44;;;;;;;46.47;32.65;;;;;;;2.87;100.00;161318.38;5031073;28;20048;-57
2022/04/16 06:13:11;;;;;;;55.30;38.97;;;;;;;3.11;100.00;161381.50;5032936;28;20189;-57
2022/04/16 06:15:40;;;;;;;54.47;39.03;;;;;;;3.33;100.00;161439.22;5032613;28;20038;-57
2022/04/16 06:18:05;;;;;;;55.92;40.30;;;;;;;3.50;100.00;161483.53;5030583;28;20041;-55
2022/04/16 06:20:30;;;;;;;85.13;50.10;;;;;;;3.89;100.00;161584.34;5032441;28;20029;-55
2022/04/16 06:22:56;;;;;;;96.20;52.28;;;;;;;4.48;100.00;161737.56;5030832;28;20095;-55
2022/04/16 06:25:22;;;;;;;92.60;57.25;;;;;;;4.80;100.00;161820.94;5031928;28;20384;-55
2022/04/16 06:27:48;;;;;;;86.75;56.47;;;;;;;5.18;100.00;161920.41;5030999;28;20102;-55
2022/04/16 06:30:13;;;;;;;83.10;54.58;;;;;;;5.57;100.00;162022.66;5031950;28;20026;-55
2022/04/16 06:32:38;;;;;;;76.13;48.17;;;;;;;5.89;100.00;162106.09;5030196;28;20419;-55
2022/04/16 06:35:05;;;;;;;62.60;41.28;;;;;;;6.18;100.00;162182.84;5033330;28;20029;-55
2022/04/16 06:37:31;;;;;;;48.78;39.88;;;;;;;6.50;100.00;162264.97;5030318;28;20115;-55
2022/04/16 06:39:57;;;;;;;54.15;36.65;;;;;;;6.70;100.00;162316.13;5031453;28;20025;-55
2022/04/16 06:42:22;;;;;;;43.92;34.03;;;;;;;6.92;100.00;162375.38;5030346;28;20531;-55
2022/04/16 06:44:47;;;;;;;31.33;27.45;;;;;;;7.11;100.00;162423.88;5032484;28;20025;-55
2022/04/16 06:47:13;;;;;;;30.38;25.70;;;;;;;7.30;100.00;162473.66;5029741;28;20037;-55
2022/04/16 06:49:38;;;;;;;28.08;24.10;;;;;;;7.43;100.00;162507.34;5031900;28;20026;-55
2022/04/16 06:52:04;;;;;;;26.98;23.35;;;;;;;7.53;100.00;162534.31;5030945;28;20049;-55
2022/04/16 06:54:30;;;;;;;25.42;21.88;;;;;;;7.66;100.00;162566.63;5031393;28;20043;-55
2022/04/16 06:56:55;;;;;;;30.73;24.33;;;;;;;7.76;100.00;162594.91;5030892;28;20108;-56
2022/04/16 06:59:20;;;;;;;28.02;23.05;;;;;;;7.96;100.00;162644.78;5032266;28;20480;-55
2022/04/16 07:01:46;;;;;;;28.75;22.80;;;;;;;8.16;100.00;162698.66;5030078;28;20417;-55
2022/04/16 07:04:11;;;;;;;26.95;19.67;;;;;;;8.42;100.00;162766.09;5032028;28;20017;-54
2022/04/16 07:06:39;;;;;;;29.23;22.02;;;;;;;8.56;100.00;162802.53;5030622;28;20048;-54
2022/04/16 07:09:04;;;;;;;26.75;20.92;;;;;;;9.06;100.00;162933.28;5032107;28;20025;-54
2022/04/16 07:11:30;;;;;;;21.35;18.75;;;;;;;9.66;100.00;163089.75;5030775;28;20464;-54
2022/04/16 07:13:55;;;;;;;19.88;17.67;;;;;;;10.36;100.00;163273.25;5032367;28;20033;-55
2022/04/16 07:16:20;;;;;;;21.67;15.77;;;;;;;11.31;100.00;163521.72;5029940;28;20075;-54
2022/04/16 07:18:46;;;;;;;20.75;16.42;;;;;;;12.97;100.00;163956.81;5031575;28;20404;-55
2022/04/16 07:21:11;;;;;;;16.45;12.35;;;;;;;13.69;100.00;164144.81;5031105;28;20038;-54
2022/04/16 07:23:37;;;;;;;15.88;13.20;;;;;;;13.92;100.00;164205.66;5030514;28;20053;-55
2022/04/16 07:26:02;;;;;;;17.25;13.57;;;;;;;14.71;100.00;164411.31;5026050;28;20440;-55
2022/04/16 07:28:27;;;;;;;18.95;14.05;;;;;;;14.58;100.00;164378.81;5030262;28;20037;-56
2022/04/16 07:30:53;;;;;;;17.00;13.75;;;;;;;14.71;100.00;164411.31;5029883;28;20017;-55
2022/04/16 07:33:19;;;;;;;17.17;11.93;;;;;;;14.96;100.00;164477.69;5031132;28;20049;-54
2022/04/16 07:35:45;;;;;;;13.48;12.07;;;;;;;15.38;100.00;164587.25;5025716;28;20469;-54
2022/04/16 07:38:10;;;;;;;12.85;10.23;;;;;;;15.99;100.00;164748.47;5029769;28;20123;-54
2022/04/16 07:40:36;;;;;;;15.88;11.45;;;;;;;15.50;100.00;164619.78;5031618;28;20393;-54
2022/04/16 07:43:02;;;;;;;17.42;12.18;;;;;;;15.54;100.00;164630.59;5029484;28;20486;-55
2022/04/16 07:45:28;;;;;;;17.98;13.43;;;;;;;15.65;100.00;164657.69;5028471;28;20030;-55
2022/04/16 07:47:53;;;;;;;15.00;12.70;;;;;;;15.64;100.00;164656.31;5022416;28;20049;-55
2022/04/16 07:50:19;;;;;;;18.55;11.30;;;;;;;15.97;100.00;164741.72;5010373;28;20079;-54
2022/04/16 07:52:45;;;;;;;15.20;11.05;;;;;;;15.84;100.00;164709.19;5009591;28;20061;-54
2022/04/16 07:55:11;;;;;;;12.32;11.02;;;;;;;15.64;100.00;164654.97;5028533;28;20048;-55
2022/04/16 07:57:36;;;;;;;10.68;8.25;;;;;;;16.01;100.00;164752.53;5028846;28;20033;-55
2022/04/16 08:00:02;;;;;;;10.45;8.90;;;;;;;15.86;100.00;164714.59;5031179;28;20120;-54
2022/04/16 08:02:28;;;;;;;14.60;10.38;;;;;;;16.17;100.00;164794.47;5029504;28;20079;-54
2022/04/16 08:04:54;;;;;;;10.77;9.43;;;;;;;16.58;100.00;164902.88;5031394;28;20105;-55
2022/04/16 08:07:19;;;;;;;14.55;10.38;;;;;;;16.84;100.00;164969.25;5029299;28;20128;-54
2022/04/16 08:09:45;;;;;;;11.90;8.10;;;;;;;16.96;100.00;165001.78;5031371;28;20020;-54
2022/04/16 08:12:11;;;;;;;14.98;10.02;;;;;;;16.85;100.00;164971.97;5029399;28;20496;-54
2022/04/16 08:14:36;;;;;;;10.88;8.50;;;;;;;17.05;100.00;165024.88;5030415;28;20044;-55
2022/04/16 08:17:02;;;;;;;10.80;8.98;;;;;;;16.93;100.00;164993.69;5029648;28;20069;-54
2022/04/16 08:19:27;;;;;;;14.15;9.75;;;;;;;16.56;100.00;164896.09;5030697;28;20112;-55
2022/04/16 08:21:53;;;;;;;11.43;9.18;;;;;;;16.59;100.00;164904.19;5029269;28;20041;-55
2022/04/16 08:24:39;;;;;;;11.30;8.52;;;;;;;17.08;100.00;165034.34;5029676;28;20052;-55
2022/04/16 08:27:05;;;;;;;8.35;7.43;;;;;;;16.56;100.00;164897.44;5024369;28;20102;-55
2022/04/16 08:29:32;;;;;;;11.20;8.15;;;;;;;16.60;100.00;164908.31;5030319;28;20071;-55
2022/04/16 08:31:57;;;;;;;11.05;9.10;;;;;;;16.38;100.00;164850.03;5028883;28;20041;-55
2022/04/16 08:34:22;;;;;;;12.40;9.23;;;;;;;15.88;100.00;164717.31;5030000;28;20103;-55
2022/04/16 08:36:48;;;;;;;14.38;8.57;;;;;;;15.69;100.00;164668.50;5029253;28;20048;-55
2022/04/16 08:39:15;;;;;;;10.55;8.10;;;;;;;15.39;100.00;164591.34;5030491;28;20022;-55
2022/04/16 08:41:41;;;;;;;11.13;9.70;;;;;;;15.66;100.00;164660.41;5028780;28;20052;-54
2022/04/16 08:44:08;;;;;;;15.73;11.43;;;;;;;15.67;100.00;164663.13;5030084;28;20508;-55
2022/04/16 08:46:33;;;;;;;10.18;9.15;;;;;;;16.14;100.00;164787.72;5028705;28;20455;-54
2022/04/16 08:48:59;;;;;;;11.40;9.18;;;;;;;16.02;100.00;164755.22;5030589;28;20041;-52
2022/04/16 08:51:30;;;;;;;12.90;9.25;;;;;;;16.15;100.00;164790.44;5022738;28;20397;-54
2022/04/16 08:53:56;;;;;;;10.85;8.27;;;;;;;16.66;100.00;164923.16;5025681;28;20037;-54
2022/04/16 08:56:21;;;;;;;11.40;8.68;;;;;;;16.24;100.00;164812.09;5028934;28;20034;-54
2022/04/16 08:58:46;;;;;;;11.10;8.30;;;;;;;15.82;100.00;164702.38;5029149;28;20062;-54
2022/04/16 09:01:12;;;;;;;9.43;7.47;;;;;;;15.85;100.00;164711.88;5029091;28;20041;-54
2022/04/16 09:03:40;;;;;;;17.00;9.95;;;;;;;15.54;100.00;164630.59;5034183;28;20033;-53
2022/04/16 09:06:06;;;;;;;8.82;7.35;;;;;;;15.99;100.00;164747.09;5032447;28;20045;-54
2022/04/16 09:08:33;;;;;;;8.20;6.55;;;;;;;15.88;100.00;164717.31;5032063;28;20365;-54
2022/04/16 09:11:12;;;;;;;12.27;9.27;;;;;;;15.80;100.00;164698.31;5032304;28;20037;-54
2022/04/16 09:13:50;;;;;;;10.35;8.55;;;;;;;15.90;100.00;164722.75;5033879;28;20032;-54
2022/04/16 09:16:19;;;;;;;;;;;;;;;15.50;100.00;164619.78;5026229;28;20048;-54
2022/04/16 09:18:52;;;;;;;7.15;6.43;;;;;;;15.41;98.96;164595.41;5034752;28;19916;-54
2022/04/16 09:21:20;;;;;;;6.47;4.97;;;;;;;15.55;100.00;164633.31;5031392;28;20108;-54
2022/04/16 09:23:52;;;;;;;8.63;6.23;;;;;;;15.37;100.00;164584.59;5033034;28;20022;-54
2022/04/16 09:26:28;;;;;;;6.15;5.55;;;;;;;15.32;98.72;164571.03;5032213;28;20124;-53
2022/04/16 09:28:54;;;;;;;8.90;7.55;;;;;;;16.60;100.00;164906.91;5033305;28;20029;-54
2022/04/16 09:31:26;;;;;;;7.82;6.35;;;;;;;15.98;96.77;164744.38;5031907;28;20095;-54
2022/04/16 09:33:51;;;;;;;6.90;5.15;;;;;;;16.42;98.77;164860.84;5029433;28;20101;-53
2022/04/16 09:36:25;;;;;;;6.30;4.95;;;;;;;17.01;93.22;165015.38;5031702;28;20045;-54
2022/04/16 09:38:59;;;;;;;5.55;4.93;;;;;;;16.78;91.72;164954.31;5033135;28;20464;-53
2022/04/16 09:41:36;;;;;;;6.47;5.60;;;;;;;16.44;95.90;164866.28;5032087;28;20408;-54
2022/04/16 09:44:02;;;;;;;8.00;5.72;;;;;;;16.11;99.82;164779.63;5033529;28;20021;-54
2022/04/16 09:46:30;;;;;;;8.55;6.90;;;;;;;16.91;100.00;164988.22;5031901;28;20041;-54
2022/04/16 09:49:04;;;;;;;6.07;4.45;;;;;;;16.88;84.72;164981.44;5034188;28;20091;-54
2022/04/16 09:51:41;;;;;;;5.30;4.07;;;;;;;17.10;83.42;165039.72;5032034;28;20125;-55
2022/04/16 09:54:07;;;;;;;6.85;5.03;;;;;;;17.85;83.92;165236.28;5033474;28;20104;-54
2022/04/16 09:56:34;;;;;;;7.10;5.13;;;;;;;17.94;86.76;165257.97;5032080;28;20091;-54
2022/04/16 09:59:02;;;;;;;8.18;6.28;;;;;;;18.32;84.53;165358.31;5033456;28;20037;-54
2022/04/16 10:01:29;;;;;;;5.78;4.90;;;;;;;17.73;83.52;165205.09;5032020;28;20053;-54
2022/04/16 10:03:55;;;;;;;6.13;4.82;;;;;;;17.77;79.04;165215.91;5033419;28;20017;-54
2022/04/16 10:06:21;;;;;;;8.60;4.38;;;;;;;17.77;78.22;165215.91;5031420;28;20128;-54
2022/04/16 10:08:48;;;;;;;4.90;3.47;;;;;;;17.24;72.47;165074.94;5033472;28;20108;-54
2022/04/16 10:11:20;;;;;;;7.47;4.97;;;;;;;16.96;73.50;165001.78;5031855;28;20045;-54
2022/04/16 10:13:56;;;;;;;4.50;4.10;;;;;;;17.39;69.90;165114.28;5032250;28;20046;-54
2022/04/16 10:16:39;;;;;;;4.38;3.97;;;;;;;17.36;63.56;165107.50;5031735;28;20041;-54
2022/04/16 10:19:16;;;;;;;6.57;3.33;;;;;;;17.63;64.50;165176.63;5033135;28;20021;-54
2022/04/16 10:21:42;;;;;;;5.93;3.25;;;;;;;17.81;64.66;165225.41;5031159;28;20034;-54
2022/04/16 10:24:08;;;;;;;4.97;3.28;;;;;;;17.47;59.99;165135.97;5033211;28;20022;-54
2022/04/16 10:26:42;;;;;;;4.43;3.25;;;;;;;17.80;65.32;165221.34;5031410;28;20404;-54
2022/04/16 10:29:08;;;;;;;5.30;3.95;;;;;;;17.93;63.15;165256.59;5032982;28;20036;-53
2022/04/16 10:31:34;;;;;;;4.22;3.83;;;;;;;17.71;66.21;165199.66;5031274;28;20038;-54
2022/04/16 10:34:11;;;;;;;5.45;3.25;;;;;;;17.79;59.55;165218.63;5031954;28;20033;-54
2022/04/16 10:36:41;;;;;;;6.47;2.92;;;;;;;17.98;60.83;165270.22;5030486;28;20059;-55
2022/04/16 10:39:23;;;;;;;4.20;3.55;;;;;;;17.31;55.62;165093.97;5033065;28;20444;-54
2022/04/16 10:41:56;;;;;;;3.05;2.85;;;;;;;16.81;55.61;164963.81;5031085;28;20038;-55
2022/04/16 10:44:22;;;;;;;3.20;2.90;;;;;;;17.19;57.77;165061.41;5033002;28;20094;-53
2022/04/16 10:46:49;;;;;;;3.65;3.33;;;;;;;16.62;50.37;164912.34;5031439;28;20488;-54
2022/04/16 10:49:25;;;;;;;3.00;2.75;;;;;;;16.28;52.85;164822.91;5032437;28;20026;-54
2022/04/16 10:51:52;;;;;;;3.95;3.05;;;;;;;16.26;57.85;164817.53;5031567;28;20539;-54
2022/04/16 10:54:32;;;;;;;7.32;3.72;;;;;;;15.94;55.61;164733.56;5032830;28;20030;-53
2022/04/16 10:56:58;;;;;;;6.72;3.70;;;;;;;15.97;54.53;164741.72;5030676;28;20655;-54
2022/04/16 10:59:45;;;;;;;3.85;3.25;;;;;;;16.18;54.97;164798.56;5032885;28;20057;-54
2022/04/16 11:02:27;;;;;;;6.22;3.45;;;;;;;15.97;53.89;164743.03;5031435;28;20049;-53
2022/04/16 11:05:11;;;;;;;2.90;2.70;;;;;;;16.30;53.74;164828.34;5032605;28;20076;-54
2022/04/16 11:07:38;;;;;;;3.60;2.85;;;;;;;16.35;52.26;164841.88;5031125;28;20042;-54
2022/04/16 11:10:05;;;;;;;4.00;3.05;;;;;;;15.78;53.36;164692.88;5033073;28;20026;-54
2022/04/16 11:12:31;;;;;;;5.22;3.40;;;;;;;15.96;60.05;164739.00;5030776;28;20038;-54
2022/04/16 11:14:56;;;;;;;3.55;2.92;;;;;;;15.96;59.22;164740.31;5032968;28;20028;-54
2022/04/16 11:17:22;;;;;;;4.90;2.85;;;;;;;15.73;57.18;164679.38;5030039;28;20665;-54
2022/04/16 11:20:07;;;;;;;2.60;2.40;;;;;;;15.58;52.34;164640.06;5032146;28;20017;-54
2022/04/16 11:22:32;;;;;;;3.58;2.53;;;;;;;15.42;53.12;164598.13;5030439;28;20064;-54
2022/04/16 11:24:58;;;;;;;2.47;2.28;;;;;;;15.30;52.87;164566.97;5032328;28;20476;-54
2022/04/16 11:36:00;;;;;;;1.92;1.83;;;;;;;15.23;53.09;164549.38;5009863;28;20071;-54